sensor_id;sensor_type;location;lat;lon;timestamp;P1;durP1;ratioP1;P2;durP2;ratioP2
74044;SDS011;62389;51.412;5.436;2023-12-20T00:01:23;12.63;;;4.18;;
74044;SDS011;62389;51.412;5.436;2023-12-20T00:03:48;12.57;;;3.33;;
74044;SDS011;62389;51.412;5.436;2023-12-20T00:06:14;8.13;;;3.50;;
74044;SDS011;62389;51.412;5.436;2023-12-20T00:08:39;10.82;;;2.92;;
74044;SDS011;62389;51.412;5.436;2023-12-20T00:11:05;8.88;;;3.97;;
74044;SDS011;62389;51.412;5.436;2023-12-20T00:13:30;9.48;;;2.92;;
74044;SDS011;62389;51.412;5.436;2023-12-20T00:15:55;10.77;;;3.63;;
74044;SDS011;62389;51.412;5.436;2023-12-20T00:18:21;11.45;;;3.72;;
74044;SDS011;62389;51.412;5.436;2023-12-20T00:20:46;10.85;;;4.43;;
74044;SDS011;62389;51.412;5.436;2023-12-20T00:23:12;10.88;;;2.80;;
74044;SDS011;62389;51.412;5.436;2023-12-20T00:25:37;10.00;;;3.15;;
74044;SDS011;62389;51.412;5.436;2023-12-20T00:28:02;5.70;;;2.65;;
74044;SDS011;62389;51.412;5.436;2023-12-20T00:30:28;14.70;;;2.45;;
74044;SDS011;62389;51.412;5.436;2023-12-20T00:32:53;8.57;;;2.33;;
74044;SDS011;62389;51.412;5.436;2023-12-20T00:35:19;8.02;;;2.03;;
74044;SDS011;62389;51.412;5.436;2023-12-20T00:37:44;9.40;;;2.45;;
74044;SDS011;62389;51.412;5.436;2023-12-20T00:40:10;7.15;;;2.45;;
74044;SDS011;62389;51.412;5.436;2023-12-20T00:42:36;7.85;;;3.40;;
74044;SDS011;62389;51.412;5.436;2023-12-20T00:45:02;14.00;;;3.60;;
74044;SDS011;62389;51.412;5.436;2023-12-20T00:47:29;8.88;;;1.95;;
74044;SDS011;62389;51.412;5.436;2023-12-20T00:49:55;7.72;;;1.83;;
74044;SDS011;62389;51.412;5.436;2023-12-20T00:52:20;12.55;;;2.65;;
74044;SDS011;62389;51.412;5.436;2023-12-20T00:54:47;10.45;;;3.20;;
74044;SDS011;62389;51.412;5.436;2023-12-20T00:57:13;7.60;;;2.70;;
74044;SDS011;62389;51.412;5.436;2023-12-20T00:59:38;7.60;;;3.10;;
74044;SDS011;62389;51.412;5.436;2023-12-20T01:02:04;10.40;;;2.40;;
74044;SDS011;62389;51.412;5.436;2023-12-20T01:04:29;9.35;;;2.13;;
74044;SDS011;62389;51.412;5.436;2023-12-20T01:06:54;8.27;;;2.45;;
74044;SDS011;62389;51.412;5.436;2023-12-20T01:09:20;13.15;;;2.40;;
74044;SDS011;62389;51.412;5.436;2023-12-20T01:11:48;18.88;;;2.90;;
74044;SDS011;62389;51.412;5.436;2023-12-20T01:14:14;9.75;;;2.30;;
74044;SDS011;62389;51.412;5.436;2023-12-20T01:16:39;7.47;;;2.33;;
74044;SDS011;62389;51.412;5.436;2023-12-20T01:19:04;8.25;;;1.95;;
74044;SDS011;62389;51.412;5.436;2023-12-20T01:21:30;14.27;;;3.03;;
74044;SDS011;62389;51.412;5.436;2023-12-20T01:23:55;9.23;;;2.08;;
74044;SDS011;62389;51.412;5.436;2023-12-20T01:26:20;8.00;;;2.13;;
74044;SDS011;62389;51.412;5.436;2023-12-20T01:28:47;8.90;;;2.22;;
74044;SDS011;62389;51.412;5.436;2023-12-20T01:31:12;8.25;;;2.15;;
74044;SDS011;62389;51.412;5.436;2023-12-20T01:33:38;9.10;;;1.92;;
74044;SDS011;62389;51.412;5.436;2023-12-20T01:36:03;10.30;;;2.20;;
74044;SDS011;62389;51.412;5.436;2023-12-20T01:38:29;8.60;;;2.00;;
74044;SDS011;62389;51.412;5.436;2023-12-20T01:40:54;8.15;;;2.13;;
74044;SDS011;62389;51.412;5.436;2023-12-20T01:43:20;6.60;;;2.25;;
74044;SDS011;62389;51.412;5.436;2023-12-20T01:45:46;9.75;;;1.80;;
74044;SDS011;62389;51.412;5.436;2023-12-20T01:48:12;6.95;;;3.35;;
74044;SDS011;62389;51.412;5.436;2023-12-20T01:50:37;9.85;;;2.20;;
74044;SDS011;62389;51.412;5.436;2023-12-20T01:53:03;10.27;;;2.40;;
74044;SDS011;62389;51.412;5.436;2023-12-20T01:55:31;9.98;;;2.55;;
74044;SDS011;62389;51.412;5.436;2023-12-20T01:57:59;14.10;;;2.13;;
74044;SDS011;62389;51.412;5.436;2023-12-20T02:00:26;10.65;;;2.53;;
74044;SDS011;62389;51.412;5.436;2023-12-20T02:02:53;7.28;;;2.08;;
74044;SDS011;62389;51.412;5.436;2023-12-20T02:05:22;11.32;;;2.67;;
74044;SDS011;62389;51.412;5.436;2023-12-20T02:07:48;6.32;;;2.05;;
74044;SDS011;62389;51.412;5.436;2023-12-20T02:10:14;8.57;;;2.15;;
74044;SDS011;62389;51.412;5.436;2023-12-20T02:12:40;5.75;;;2.55;;
74044;SDS011;62389;51.412;5.436;2023-12-20T02:15:06;7.70;;;2.05;;
74044;SDS011;62389;51.412;5.436;2023-12-20T02:17:32;10.07;;;2.67;;
74044;SDS011;62389;51.412;5.436;2023-12-20T02:19:58;10.05;;;2.65;;
74044;SDS011;62389;51.412;5.436;2023-12-20T02:22:23;11.40;;;2.10;;
74044;SDS011;62389;51.412;5.436;2023-12-20T02:24:49;9.50;;;2.95;;
74044;SDS011;62389;51.412;5.436;2023-12-20T02:27:14;7.30;;;2.30;;
74044;SDS011;62389;51.412;5.436;2023-12-20T02:29:42;8.90;;;2.30;;
74044;SDS011;62389;51.412;5.436;2023-12-20T02:32:07;9.65;;;2.83;;
74044;SDS011;62389;51.412;5.436;2023-12-20T02:34:33;10.63;;;2.50;;
74044;SDS011;62389;51.412;5.436;2023-12-20T02:36:58;10.93;;;2.40;;
74044;SDS011;62389;51.412;5.436;2023-12-20T02:39:23;9.68;;;2.38;;
74044;SDS011;62389;51.412;5.436;2023-12-20T02:41:49;10.80;;;1.98;;
74044;SDS011;62389;51.412;5.436;2023-12-20T02:44:14;11.25;;;2.78;;
74044;SDS011;62389;51.412;5.436;2023-12-20T02:46:40;7.20;;;2.00;;
74044;SDS011;62389;51.412;5.436;2023-12-20T02:49:05;7.13;;;2.55;;
74044;SDS011;62389;51.412;5.436;2023-12-20T02:51:31;14.48;;;2.65;;
74044;SDS011;62389;51.412;5.436;2023-12-20T02:53:57;8.38;;;2.72;;
74044;SDS011;62389;51.412;5.436;2023-12-20T02:56:22;10.30;;;2.55;;
74044;SDS011;62389;51.412;5.436;2023-12-20T02:58:47;9.00;;;2.63;;
74044;SDS011;62389;51.412;5.436;2023-12-20T03:01:13;8.23;;;2.70;;
74044;SDS011;62389;51.412;5.436;2023-12-20T03:03:38;13.00;;;3.25;;
74044;SDS011;62389;51.412;5.436;2023-12-20T03:06:04;13.02;;;3.30;;
74044;SDS011;62389;51.412;5.436;2023-12-20T03:08:29;9.57;;;2.63;;
74044;SDS011;62389;51.412;5.436;2023-12-20T03:10:54;8.48;;;2.67;;
74044;SDS011;62389;51.412;5.436;2023-12-20T03:13:20;9.00;;;2.90;;
74044;SDS011;62389;51.412;5.436;2023-12-20T03:15:45;14.07;;;3.22;;
74044;SDS011;62389;51.412;5.436;2023-12-20T03:18:11;10.88;;;4.35;;
74044;SDS011;62389;51.412;5.436;2023-12-20T03:20:36;8.13;;;2.92;;
74044;SDS011;62389;51.412;5.436;2023-12-20T03:23:02;11.13;;;3.25;;
74044;SDS011;62389;51.412;5.436;2023-12-20T03:25:28;10.80;;;3.42;;
74044;SDS011;62389;51.412;5.436;2023-12-20T03:27:54;12.88;;;4.10;;
74044;SDS011;62389;51.412;5.436;2023-12-20T03:30:19;9.95;;;2.88;;
74044;SDS011;62389;51.412;5.436;2023-12-20T03:32:45;9.75;;;3.03;;
74044;SDS011;62389;51.412;5.436;2023-12-20T03:35:10;9.38;;;3.20;;
74044;SDS011;62389;51.412;5.436;2023-12-20T03:37:36;10.02;;;2.90;;
74044;SDS011;62389;51.412;5.436;2023-12-20T03:40:02;8.68;;;2.88;;
74044;SDS011;62389;51.412;5.436;2023-12-20T03:42:27;13.85;;;3.15;;
74044;SDS011;62389;51.412;5.436;2023-12-20T03:44:53;11.98;;;3.17;;
74044;SDS011;62389;51.412;5.436;2023-12-20T03:47:18;17.25;;;3.38;;
74044;SDS011;62389;51.412;5.436;2023-12-20T03:49:43;19.10;;;3.60;;
74044;SDS011;62389;51.412;5.436;2023-12-20T03:52:09;12.55;;;3.38;;
74044;SDS011;62389;51.412;5.436;2023-12-20T03:54:37;11.88;;;3.90;;
74044;SDS011;62389;51.412;5.436;2023-12-20T03:57:03;13.43;;;3.55;;
74044;SDS011;62389;51.412;5.436;2023-12-20T03:59:29;10.55;;;3.30;;
74044;SDS011;62389;51.412;5.436;2023-12-20T04:01:55;12.38;;;3.60;;
74044;SDS011;62389;51.412;5.436;2023-12-20T04:04:20;10.27;;;3.85;;
74044;SDS011;62389;51.412;5.436;2023-12-20T04:06:45;7.32;;;3.50;;
74044;SDS011;62389;51.412;5.436;2023-12-20T04:09:11;12.43;;;3.67;;
74044;SDS011;62389;51.412;5.436;2023-12-20T04:11:37;11.70;;;3.30;;
74044;SDS011;62389;51.412;5.436;2023-12-20T04:14:02;11.35;;;3.05;;
74044;SDS011;62389;51.412;5.436;2023-12-20T04:16:27;13.60;;;3.63;;
74044;SDS011;62389;51.412;5.436;2023-12-20T04:18:53;11.35;;;3.15;;
74044;SDS011;62389;51.412;5.436;2023-12-20T04:21:18;17.60;;;4.15;;
74044;SDS011;62389;51.412;5.436;2023-12-20T04:23:43;15.73;;;3.88;;
74044;SDS011;62389;51.412;5.436;2023-12-20T04:26:09;11.15;;;3.60;;
74044;SDS011;62389;51.412;5.436;2023-12-20T04:28:35;9.45;;;3.33;;
74044;SDS011;62389;51.412;5.436;2023-12-20T04:31:00;12.77;;;3.25;;
74044;SDS011;62389;51.412;5.436;2023-12-20T04:33:26;15.75;;;3.75;;
74044;SDS011;62389;51.412;5.436;2023-12-20T04:35:51;18.10;;;4.30;;
74044;SDS011;62389;51.412;5.436;2023-12-20T04:38:16;12.40;;;4.38;;
74044;SDS011;62389;51.412;5.436;2023-12-20T04:40:42;16.42;;;3.85;;
74044;SDS011;62389;51.412;5.436;2023-12-20T04:43:07;12.50;;;3.17;;
74044;SDS011;62389;51.412;5.436;2023-12-20T04:45:34;13.38;;;3.20;;
74044;SDS011;62389;51.412;5.436;2023-12-20T04:47:59;19.95;;;4.88;;
74044;SDS011;62389;51.412;5.436;2023-12-20T04:50:26;13.25;;;4.90;;
74044;SDS011;62389;51.412;5.436;2023-12-20T04:52:51;12.80;;;3.28;;
74044;SDS011;62389;51.412;5.436;2023-12-20T04:55:16;12.68;;;3.85;;
74044;SDS011;62389;51.412;5.436;2023-12-20T04:57:42;15.15;;;3.90;;
74044;SDS011;62389;51.412;5.436;2023-12-20T05:00:08;23.45;;;4.93;;
74044;SDS011;62389;51.412;5.436;2023-12-20T05:02:34;12.85;;;4.15;;
74044;SDS011;62389;51.412;5.436;2023-12-20T05:05:00;14.93;;;3.45;;
74044;SDS011;62389;51.412;5.436;2023-12-20T05:07:26;12.20;;;5.03;;
74044;SDS011;62389;51.412;5.436;2023-12-20T05:09:51;14.05;;;3.47;;
74044;SDS011;62389;51.412;5.436;2023-12-20T05:12:16;14.73;;;3.95;;
74044;SDS011;62389;51.412;5.436;2023-12-20T05:14:42;14.85;;;3.50;;
74044;SDS011;62389;51.412;5.436;2023-12-20T05:17:07;16.98;;;3.47;;
74044;SDS011;62389;51.412;5.436;2023-12-20T05:19:32;22.67;;;4.35;;
74044;SDS011;62389;51.412;5.436;2023-12-20T05:24:25;18.63;;;5.13;;
74044;SDS011;62389;51.412;5.436;2023-12-20T05:26:50;15.55;;;3.63;;
74044;SDS011;62389;51.412;5.436;2023-12-20T05:29:16;10.20;;;3.17;;
74044;SDS011;62389;51.412;5.436;2023-12-20T05:31:42;17.98;;;4.05;;
74044;SDS011;62389;51.412;5.436;2023-12-20T05:34:07;12.35;;;5.25;;
74044;SDS011;62389;51.412;5.436;2023-12-20T05:36:33;17.13;;;3.58;;
74044;SDS011;62389;51.412;5.436;2023-12-20T05:38:58;15.18;;;3.40;;
74044;SDS011;62389;51.412;5.436;2023-12-20T05:41:23;12.85;;;3.78;;
74044;SDS011;62389;51.412;5.436;2023-12-20T05:43:49;18.55;;;4.07;;
74044;SDS011;62389;51.412;5.436;2023-12-20T05:46:14;17.27;;;3.92;;
74044;SDS011;62389;51.412;5.436;2023-12-20T05:48:39;8.65;;;3.15;;
74044;SDS011;62389;51.412;5.436;2023-12-20T05:51:05;19.27;;;4.93;;
74044;SDS011;62389;51.412;5.436;2023-12-20T05:53:30;12.02;;;3.97;;
74044;SDS011;62389;51.412;5.436;2023-12-20T05:55:55;15.05;;;3.92;;
74044;SDS011;62389;51.412;5.436;2023-12-20T05:58:21;14.18;;;3.67;;
74044;SDS011;62389;51.412;5.436;2023-12-20T06:00:46;13.80;;;4.55;;
74044;SDS011;62389;51.412;5.436;2023-12-20T06:03:11;12.77;;;3.45;;
74044;SDS011;62389;51.412;5.436;2023-12-20T06:05:37;8.43;;;2.65;;
74044;SDS011;62389;51.412;5.436;2023-12-20T06:08:02;11.25;;;3.33;;
74044;SDS011;62389;51.412;5.436;2023-12-20T06:10:28;14.93;;;3.03;;
74044;SDS011;62389;51.412;5.436;2023-12-20T06:12:54;17.02;;;4.18;;
74044;SDS011;62389;51.412;5.436;2023-12-20T06:15:21;11.43;;;3.70;;
74044;SDS011;62389;51.412;5.436;2023-12-20T06:17:46;12.98;;;2.92;;
74044;SDS011;62389;51.412;5.436;2023-12-20T06:20:12;9.18;;;3.05;;
74044;SDS011;62389;51.412;5.436;2023-12-20T06:22:38;13.35;;;3.38;;
74044;SDS011;62389;51.412;5.436;2023-12-20T06:25:03;12.63;;;3.13;;
74044;SDS011;62389;51.412;5.436;2023-12-20T06:27:30;12.55;;;3.78;;
74044;SDS011;62389;51.412;5.436;2023-12-20T06:32:22;8.90;;;3.20;;
74044;SDS011;62389;51.412;5.436;2023-12-20T06:34:48;10.77;;;4.57;;
74044;SDS011;62389;51.412;5.436;2023-12-20T06:37:14;15.15;;;3.78;;
74044;SDS011;62389;51.412;5.436;2023-12-20T06:39:40;11.38;;;3.40;;
74044;SDS011;62389;51.412;5.436;2023-12-20T06:42:05;14.45;;;3.42;;
74044;SDS011;62389;51.412;5.436;2023-12-20T06:44:31;16.25;;;4.63;;
74044;SDS011;62389;51.412;5.436;2023-12-20T06:46:56;14.88;;;4.25;;
74044;SDS011;62389;51.412;5.436;2023-12-20T06:49:22;11.40;;;4.05;;
74044;SDS011;62389;51.412;5.436;2023-12-20T06:51:47;14.93;;;2.97;;
74044;SDS011;62389;51.412;5.436;2023-12-20T06:54:13;10.05;;;3.35;;
74044;SDS011;62389;51.412;5.436;2023-12-20T06:56:38;10.52;;;2.67;;
74044;SDS011;62389;51.412;5.436;2023-12-20T06:59:03;14.27;;;3.55;;
74044;SDS011;62389;51.412;5.436;2023-12-20T07:01:29;11.90;;;3.42;;
74044;SDS011;62389;51.412;5.436;2023-12-20T07:03:54;12.43;;;3.33;;
74044;SDS011;62389;51.412;5.436;2023-12-20T07:06:19;11.23;;;3.25;;
74044;SDS011;62389;51.412;5.436;2023-12-20T07:08:45;15.45;;;3.60;;
74044;SDS011;62389;51.412;5.436;2023-12-20T07:11:11;11.38;;;2.92;;
74044;SDS011;62389;51.412;5.436;2023-12-20T07:13:36;13.50;;;4.10;;
74044;SDS011;62389;51.412;5.436;2023-12-20T07:16:02;13.50;;;3.42;;
74044;SDS011;62389;51.412;5.436;2023-12-20T07:18:27;16.13;;;2.83;;
74044;SDS011;62389;51.412;5.436;2023-12-20T07:20:53;14.38;;;3.40;;
74044;SDS011;62389;51.412;5.436;2023-12-20T07:23:19;17.00;;;4.35;;
74044;SDS011;62389;51.412;5.436;2023-12-20T07:25:45;8.30;;;2.70;;
74044;SDS011;62389;51.412;5.436;2023-12-20T07:28:10;14.40;;;3.22;;
74044;SDS011;62389;51.412;5.436;2023-12-20T07:30:36;13.07;;;3.03;;
74044;SDS011;62389;51.412;5.436;2023-12-20T07:33:01;12.27;;;2.97;;
74044;SDS011;62389;51.412;5.436;2023-12-20T07:35:27;17.00;;;3.72;;
74044;SDS011;62389;51.412;5.436;2023-12-20T07:37:53;14.32;;;3.17;;
74044;SDS011;62389;51.412;5.436;2023-12-20T07:40:18;13.88;;;3.88;;
74044;SDS011;62389;51.412;5.436;2023-12-20T07:42:43;9.50;;;3.22;;
74044;SDS011;62389;51.412;5.436;2023-12-20T07:45:09;9.43;;;2.95;;
74044;SDS011;62389;51.412;5.436;2023-12-20T07:47:35;11.65;;;3.42;;
74044;SDS011;62389;51.412;5.436;2023-12-20T07:50:01;11.18;;;3.40;;
74044;SDS011;62389;51.412;5.436;2023-12-20T07:52:29;11.52;;;3.30;;
74044;SDS011;62389;51.412;5.436;2023-12-20T07:54:54;11.32;;;2.88;;
74044;SDS011;62389;51.412;5.436;2023-12-20T07:57:20;15.18;;;3.28;;
74044;SDS011;62389;51.412;5.436;2023-12-20T07:59:45;13.45;;;3.25;;
74044;SDS011;62389;51.412;5.436;2023-12-20T08:02:11;8.60;;;2.78;;
74044;SDS011;62389;51.412;5.436;2023-12-20T08:04:36;12.75;;;2.83;;
74044;SDS011;62389;51.412;5.436;2023-12-20T08:07:02;15.75;;;3.13;;
74044;SDS011;62389;51.412;5.436;2023-12-20T08:09:28;13.65;;;2.58;;
74044;SDS011;62389;51.412;5.436;2023-12-20T08:11:54;11.23;;;3.30;;
74044;SDS011;62389;51.412;5.436;2023-12-20T08:14:19;11.50;;;2.72;;
74044;SDS011;62389;51.412;5.436;2023-12-20T08:16:44;13.50;;;3.60;;
74044;SDS011;62389;51.412;5.436;2023-12-20T08:19:10;16.00;;;3.90;;
74044;SDS011;62389;51.412;5.436;2023-12-20T08:21:35;9.50;;;2.72;;
74044;SDS011;62389;51.412;5.436;2023-12-20T08:24:00;15.32;;;4.40;;
74044;SDS011;62389;51.412;5.436;2023-12-20T08:26:26;11.27;;;2.85;;
74044;SDS011;62389;51.412;5.436;2023-12-20T08:28:51;14.65;;;3.22;;
74044;SDS011;62389;51.412;5.436;2023-12-20T08:31:17;9.73;;;2.50;;
74044;SDS011;62389;51.412;5.436;2023-12-20T08:33:43;15.52;;;3.65;;
74044;SDS011;62389;51.412;5.436;2023-12-20T08:36:09;14.43;;;2.58;;
74044;SDS011;62389;51.412;5.436;2023-12-20T08:38:35;10.43;;;2.50;;
74044;SDS011;62389;51.412;5.436;2023-12-20T08:41:01;9.73;;;2.67;;
74044;SDS011;62389;51.412;5.436;2023-12-20T08:43:28;11.18;;;3.63;;
74044;SDS011;62389;51.412;5.436;2023-12-20T08:45:53;14.00;;;3.38;;
74044;SDS011;62389;51.412;5.436;2023-12-20T08:48:19;12.15;;;3.35;;
74044;SDS011;62389;51.412;5.436;2023-12-20T08:50:44;9.88;;;2.72;;
74044;SDS011;62389;51.412;5.436;2023-12-20T08:53:10;11.13;;;3.35;;
74044;SDS011;62389;51.412;5.436;2023-12-20T08:55:35;16.52;;;3.00;;
74044;SDS011;62389;51.412;5.436;2023-12-20T08:58:00;11.57;;;3.25;;
74044;SDS011;62389;51.412;5.436;2023-12-20T09:00:26;10.57;;;3.35;;
74044;SDS011;62389;51.412;5.436;2023-12-20T09:02:52;7.70;;;2.65;;
74044;SDS011;62389;51.412;5.436;2023-12-20T09:05:19;7.00;;;3.05;;
74044;SDS011;62389;51.412;5.436;2023-12-20T09:07:44;10.85;;;3.05;;
74044;SDS011;62389;51.412;5.436;2023-12-20T09:10:09;12.52;;;2.65;;
74044;SDS011;62389;51.412;5.436;2023-12-20T09:12:35;9.40;;;3.65;;
74044;SDS011;62389;51.412;5.436;2023-12-20T09:15:03;13.60;;;3.17;;
74044;SDS011;62389;51.412;5.436;2023-12-20T09:17:28;8.13;;;2.60;;
74044;SDS011;62389;51.412;5.436;2023-12-20T09:19:54;7.30;;;2.75;;
74044;SDS011;62389;51.412;5.436;2023-12-20T09:22:19;7.68;;;2.40;;
74044;SDS011;62389;51.412;5.436;2023-12-20T09:24:44;12.07;;;3.55;;
74044;SDS011;62389;51.412;5.436;2023-12-20T09:27:10;13.85;;;3.20;;
74044;SDS011;62389;51.412;5.436;2023-12-20T09:29:35;17.30;;;3.33;;
74044;SDS011;62389;51.412;5.436;2023-12-20T09:32:01;17.95;;;3.25;;
74044;SDS011;62389;51.412;5.436;2023-12-20T09:34:26;11.98;;;3.42;;
74044;SDS011;62389;51.412;5.436;2023-12-20T09:36:52;14.30;;;3.90;;
74044;SDS011;62389;51.412;5.436;2023-12-20T09:39:18;8.05;;;3.05;;
74044;SDS011;62389;51.412;5.436;2023-12-20T09:41:44;11.82;;;3.55;;
74044;SDS011;62389;51.412;5.436;2023-12-20T09:44:15;7.80;;;2.85;;
74044;SDS011;62389;51.412;5.436;2023-12-20T09:46:43;20.58;;;3.20;;
74044;SDS011;62389;51.412;5.436;2023-12-20T09:49:10;14.43;;;4.15;;
74044;SDS011;62389;51.412;5.436;2023-12-20T09:51:37;10.05;;;3.10;;
74044;SDS011;62389;51.412;5.436;2023-12-20T09:54:03;14.50;;;3.17;;
74044;SDS011;62389;51.412;5.436;2023-12-20T09:56:29;9.18;;;3.15;;
74044;SDS011;62389;51.412;5.436;2023-12-20T09:58:55;11.13;;;3.80;;
74044;SDS011;62389;51.412;5.436;2023-12-20T10:01:21;13.25;;;2.83;;
74044;SDS011;62389;51.412;5.436;2023-12-20T10:03:48;10.10;;;2.90;;
74044;SDS011;62389;51.412;5.436;2023-12-20T10:06:16;17.25;;;3.17;;
74044;SDS011;62389;51.412;5.436;2023-12-20T10:08:41;10.45;;;2.70;;
74044;SDS011;62389;51.412;5.436;2023-12-20T10:11:07;13.05;;;3.65;;
74044;SDS011;62389;51.412;5.436;2023-12-20T10:13:32;9.85;;;3.15;;
74044;SDS011;62389;51.412;5.436;2023-12-20T10:15:58;13.75;;;3.30;;
74044;SDS011;62389;51.412;5.436;2023-12-20T10:18:24;6.97;;;2.50;;
74044;SDS011;62389;51.412;5.436;2023-12-20T10:20:49;14.70;;;3.17;;
74044;SDS011;62389;51.412;5.436;2023-12-20T10:23:15;12.20;;;3.53;;
74044;SDS011;62389;51.412;5.436;2023-12-20T10:25:41;9.50;;;2.95;;
74044;SDS011;62389;51.412;5.436;2023-12-20T10:28:16;12.00;;;3.33;;
74044;SDS011;62389;51.412;5.436;2023-12-20T10:30:47;8.25;;;3.38;;
74044;SDS011;62389;51.412;5.436;2023-12-20T10:33:13;17.52;;;3.42;;
74044;SDS011;62389;51.412;5.436;2023-12-20T10:35:38;12.45;;;3.00;;
74044;SDS011;62389;51.412;5.436;2023-12-20T10:38:05;7.05;;;2.80;;
74044;SDS011;62389;51.412;5.436;2023-12-20T10:40:31;11.65;;;2.58;;
74044;SDS011;62389;51.412;5.436;2023-12-20T10:42:59;11.02;;;2.97;;
74044;SDS011;62389;51.412;5.436;2023-12-20T10:45:27;11.90;;;2.85;;
74044;SDS011;62389;51.412;5.436;2023-12-20T10:47:52;10.93;;;2.65;;
74044;SDS011;62389;51.412;5.436;2023-12-20T10:50:18;8.80;;;3.08;;
74044;SDS011;62389;51.412;5.436;2023-12-20T10:52:44;12.35;;;3.35;;
74044;SDS011;62389;51.412;5.436;2023-12-20T10:57:37;13.20;;;3.27;;
74044;SDS011;62389;51.412;5.436;2023-12-20T11:00:02;10.80;;;3.25;;
74044;SDS011;62389;51.412;5.436;2023-12-20T11:02:29;12.68;;;2.90;;
74044;SDS011;62389;51.412;5.436;2023-12-20T11:05:10;14.13;;;3.78;;
74044;SDS011;62389;51.412;5.436;2023-12-20T11:08:04;11.30;;;4.38;;
74044;SDS011;62389;51.412;5.436;2023-12-20T11:10:43;10.73;;;3.40;;
74044;SDS011;62389;51.412;5.436;2023-12-20T11:13:23;9.38;;;3.28;;
74044;SDS011;62389;51.412;5.436;2023-12-20T11:15:55;9.90;;;3.13;;
74044;SDS011;62389;51.412;5.436;2023-12-20T11:18:20;12.10;;;3.60;;
74044;SDS011;62389;51.412;5.436;2023-12-20T11:20:54;18.58;;;4.32;;
74044;SDS011;62389;51.412;5.436;2023-12-20T11:23:19;13.20;;;3.92;;
74044;SDS011;62389;51.412;5.436;2023-12-20T11:25:55;13.20;;;3.75;;
74044;SDS011;62389;51.412;5.436;2023-12-20T11:28:24;12.63;;;4.03;;
74044;SDS011;62389;51.412;5.436;2023-12-20T11:30:54;11.85;;;4.05;;
74044;SDS011;62389;51.412;5.436;2023-12-20T11:33:21;9.02;;;3.88;;
74044;SDS011;62389;51.412;5.436;2023-12-20T11:35:48;16.27;;;4.72;;
74044;SDS011;62389;51.412;5.436;2023-12-20T11:38:14;9.30;;;3.53;;
74044;SDS011;62389;51.412;5.436;2023-12-20T11:40:40;14.23;;;3.75;;
74044;SDS011;62389;51.412;5.436;2023-12-20T11:43:06;11.23;;;3.30;;
74044;SDS011;62389;51.412;5.436;2023-12-20T11:45:32;16.20;;;3.90;;
74044;SDS011;62389;51.412;5.436;2023-12-20T11:48:00;12.65;;;3.60;;
74044;SDS011;62389;51.412;5.436;2023-12-20T11:50:27;13.65;;;3.30;;
74044;SDS011;62389;51.412;5.436;2023-12-20T11:52:54;15.00;;;3.88;;
74044;SDS011;62389;51.412;5.436;2023-12-20T11:57:46;16.40;;;3.72;;
74044;SDS011;62389;51.412;5.436;2023-12-20T12:00:12;10.93;;;3.35;;
74044;SDS011;62389;51.412;5.436;2023-12-20T12:02:39;10.43;;;3.20;;
74044;SDS011;62389;51.412;5.436;2023-12-20T12:05:04;9.00;;;4.18;;
74044;SDS011;62389;51.412;5.436;2023-12-20T12:07:31;17.50;;;4.13;;
74044;SDS011;62389;51.412;5.436;2023-12-20T12:09:56;13.05;;;3.30;;
74044;SDS011;62389;51.412;5.436;2023-12-20T12:12:22;14.15;;;3.55;;
74044;SDS011;62389;51.412;5.436;2023-12-20T12:14:48;15.63;;;5.00;;
74044;SDS011;62389;51.412;5.436;2023-12-20T12:17:14;12.75;;;4.00;;
74044;SDS011;62389;51.412;5.436;2023-12-20T12:19:40;11.77;;;3.35;;
74044;SDS011;62389;51.412;5.436;2023-12-20T12:22:07;13.93;;;3.67;;
74044;SDS011;62389;51.412;5.436;2023-12-20T12:24:36;11.77;;;4.28;;
74044;SDS011;62389;51.412;5.436;2023-12-20T12:27:02;14.88;;;4.15;;
74044;SDS011;62389;51.412;5.436;2023-12-20T12:29:28;13.18;;;3.85;;
74044;SDS011;62389;51.412;5.436;2023-12-20T12:31:54;14.60;;;4.22;;
74044;SDS011;62389;51.412;5.436;2023-12-20T12:34:20;12.02;;;4.18;;
74044;SDS011;62389;51.412;5.436;2023-12-20T12:36:45;14.15;;;4.07;;
74044;SDS011;62389;51.412;5.436;2023-12-20T12:39:14;15.68;;;4.10;;
74044;SDS011;62389;51.412;5.436;2023-12-20T12:41:42;12.40;;;4.45;;
74044;SDS011;62389;51.412;5.436;2023-12-20T12:44:08;14.57;;;4.93;;
74044;SDS011;62389;51.412;5.436;2023-12-20T12:46:33;10.80;;;4.65;;
74044;SDS011;62389;51.412;5.436;2023-12-20T12:48:59;13.43;;;5.45;;
74044;SDS011;62389;51.412;5.436;2023-12-20T12:51:25;12.75;;;5.90;;
74044;SDS011;62389;51.412;5.436;2023-12-20T12:53:50;11.52;;;5.43;;
74044;SDS011;62389;51.412;5.436;2023-12-20T12:56:15;12.85;;;4.75;;
74044;SDS011;62389;51.412;5.436;2023-12-20T12:58:41;15.77;;;5.30;;
74044;SDS011;62389;51.412;5.436;2023-12-20T13:01:07;14.20;;;5.22;;
74044;SDS011;62389;51.412;5.436;2023-12-20T13:03:32;16.70;;;6.25;;
74044;SDS011;62389;51.412;5.436;2023-12-20T13:05:59;17.58;;;5.60;;
74044;SDS011;62389;51.412;5.436;2023-12-20T13:08:24;22.52;;;5.85;;
74044;SDS011;62389;51.412;5.436;2023-12-20T13:10:50;18.83;;;7.38;;
74044;SDS011;62389;51.412;5.436;2023-12-20T13:13:15;11.52;;;5.15;;
74044;SDS011;62389;51.412;5.436;2023-12-20T13:15:41;16.13;;;5.13;;
74044;SDS011;62389;51.412;5.436;2023-12-20T13:18:07;17.17;;;5.07;;
74044;SDS011;62389;51.412;5.436;2023-12-20T13:20:32;13.13;;;5.28;;
74044;SDS011;62389;51.412;5.436;2023-12-20T13:22:58;17.15;;;5.22;;
74044;SDS011;62389;51.412;5.436;2023-12-20T13:25:24;16.30;;;5.43;;
74044;SDS011;62389;51.412;5.436;2023-12-20T13:27:49;16.02;;;5.03;;
74044;SDS011;62389;51.412;5.436;2023-12-20T13:30:15;10.30;;;4.65;;
74044;SDS011;62389;51.412;5.436;2023-12-20T13:35:07;16.65;;;5.40;;
74044;SDS011;62389;51.412;5.436;2023-12-20T13:37:33;12.32;;;5.10;;
74044;SDS011;62389;51.412;5.436;2023-12-20T13:39:58;16.73;;;5.47;;
74044;SDS011;62389;51.412;5.436;2023-12-20T13:42:32;12.13;;;5.25;;
74044;SDS011;62389;51.412;5.436;2023-12-20T13:44:57;13.40;;;4.55;;
74044;SDS011;62389;51.412;5.436;2023-12-20T13:47:22;15.82;;;5.40;;
74044;SDS011;62389;51.412;5.436;2023-12-20T13:49:48;19.98;;;5.70;;
74044;SDS011;62389;51.412;5.436;2023-12-20T13:52:13;11.65;;;4.40;;
74044;SDS011;62389;51.412;5.436;2023-12-20T13:54:38;16.98;;;4.80;;
74044;SDS011;62389;51.412;5.436;2023-12-20T13:57:04;9.70;;;4.00;;
74044;SDS011;62389;51.412;5.436;2023-12-20T13:59:29;15.70;;;4.72;;
74044;SDS011;62389;51.412;5.436;2023-12-20T14:01:55;10.40;;;3.75;;
74044;SDS011;62389;51.412;5.436;2023-12-20T14:04:22;16.00;;;4.90;;
74044;SDS011;62389;51.412;5.436;2023-12-20T14:06:47;17.77;;;5.10;;
74044;SDS011;62389;51.412;5.436;2023-12-20T14:09:13;10.43;;;4.85;;
74044;SDS011;62389;51.412;5.436;2023-12-20T14:11:38;13.85;;;4.47;;
74044;SDS011;62389;51.412;5.436;2023-12-20T14:14:09;10.18;;;4.13;;
74044;SDS011;62389;51.412;5.436;2023-12-20T14:16:34;17.50;;;4.75;;
74044;SDS011;62389;51.412;5.436;2023-12-20T14:19:00;12.80;;;4.30;;
74044;SDS011;62389;51.412;5.436;2023-12-20T14:21:25;15.93;;;4.55;;
74044;SDS011;62389;51.412;5.436;2023-12-20T14:23:50;12.82;;;4.70;;
74044;SDS011;62389;51.412;5.436;2023-12-20T14:26:17;13.52;;;4.00;;
74044;SDS011;62389;51.412;5.436;2023-12-20T14:28:42;12.02;;;4.43;;
74044;SDS011;62389;51.412;5.436;2023-12-20T14:31:08;15.07;;;3.67;;
74044;SDS011;62389;51.412;5.436;2023-12-20T14:33:35;12.70;;;3.63;;
74044;SDS011;62389;51.412;5.436;2023-12-20T14:36:03;9.20;;;3.42;;
74044;SDS011;62389;51.412;5.436;2023-12-20T14:38:30;13.77;;;3.75;;
74044;SDS011;62389;51.412;5.436;2023-12-20T14:40:56;19.02;;;4.82;;
74044;SDS011;62389;51.412;5.436;2023-12-20T14:43:22;16.02;;;3.92;;